createdAt,value
2022-07-29T00:02:28.638Z,95583.06
2022-07-29T00:05:14.658Z,95586.59
2022-07-29T00:08:00.796Z,95582.63
2022-07-29T00:10:46.942Z,95581.03
2022-07-29T00:13:33.042Z,95577.09
2022-07-29T00:16:18.933Z,95581.03
2022-07-29T00:19:04.839Z,95572.41
2022-07-29T00:21:51.062Z,95568.44
2022-07-29T00:24:37.203Z,95559.72
2022-07-29T00:27:23.340Z,95561.69
2022-07-29T00:30:09.810Z,95557.34
2022-07-29T00:32:55.508Z,95554.56
2022-07-29T00:35:47.257Z,95537.59
2022-07-29T00:38:32.925Z,95553.38
2022-07-29T00:41:19.382Z,95554.19
2022-07-29T00:44:05.219Z,95553.38
2022-07-29T00:46:51.671Z,95554.16
2022-07-29T00:49:39.931Z,95549.44
2022-07-29T00:52:26.105Z,95549.44
2022-07-29T00:55:15.683Z,95539.56
2022-07-29T00:58:01.654Z,95547.44
2022-07-29T01:00:47.527Z,95539.16
2022-07-29T01:03:33.356Z,95543.88
2022-07-29T01:06:20.266Z,95531.66
2022-07-29T01:09:06.869Z,95536.00
2022-07-29T01:11:53.130Z,95538.34
2022-07-29T01:14:39.377Z,95536.75
2022-07-29T01:17:28.902Z,95544.25
2022-07-29T01:20:37.626Z,95532.75
2022-07-29T01:23:53.911Z,95544.59
2022-07-29T01:26:48.861Z,95540.66
2022-07-29T01:29:40.457Z,95542.22
2022-07-29T01:32:30.408Z,95535.13
2022-07-29T01:35:26.243Z,95539.88
2022-07-29T01:38:21.935Z,95541.84
2022-07-29T01:41:14.139Z,95533.56
2022-07-29T01:44:03.992Z,95531.19
2022-07-29T01:46:55.747Z,95536.31
2022-07-29T01:49:47.999Z,95541.44
2022-07-29T01:52:57.474Z,95542.19
2022-07-29T01:55:46.010Z,95542.59
2022-07-29T01:58:32.951Z,95532.34
2022-07-29T02:01:19.206Z,95544.94
2022-07-29T02:04:07.320Z,95550.09
2022-07-29T02:06:54.483Z,95546.91
2022-07-29T02:09:40.926Z,95544.53
2022-07-29T02:12:29.095Z,95551.63
2022-07-29T02:15:15.885Z,95551.66
2022-07-29T02:18:17.248Z,95561.06
2022-07-29T02:21:04.630Z,95554.00
2022-07-29T02:23:54.056Z,95551.63
2022-07-29T02:26:41.732Z,95545.28
2022-07-29T02:29:29.278Z,95548.44
2022-07-29T02:32:15.773Z,95549.19
2022-07-29T02:35:02.717Z,95553.19
2022-07-29T02:38:12.673Z,95554.69
2022-07-29T02:41:00.246Z,95559.41
2022-07-29T02:43:49.311Z,95553.91
2022-07-29T02:46:37.201Z,95559.84
2022-07-29T02:49:36.778Z,95551.53
2022-07-29T02:52:28.743Z,95545.59
2022-07-29T02:55:25.441Z,95541.28
2022-07-29T02:58:34.848Z,95538.13
2022-07-29T03:01:25.578Z,95539.63
2022-07-29T03:04:13.498Z,95542.78
2022-07-29T03:07:00.757Z,95553.00
2022-07-29T03:09:46.843Z,95545.13
2022-07-29T03:12:32.795Z,95545.06
2022-07-29T03:15:19.864Z,95555.31
2022-07-29T03:18:06.967Z,95549.78
2022-07-29T03:20:53.213Z,95547.38
2022-07-29T03:23:45.349Z,95559.97
2022-07-29T03:26:32.386Z,95559.94
2022-07-29T03:29:18.170Z,95559.91
2022-07-29T03:32:08.143Z,95568.53
2022-07-29T03:34:54.533Z,95568.53
2022-07-29T03:37:40.204Z,95570.50
2022-07-29T03:40:45.861Z,95574.38
2022-07-29T03:43:34.323Z,95577.13
2022-07-29T03:46:22.328Z,95582.63
2022-07-29T03:49:09.586Z,95579.47
2022-07-29T03:51:55.975Z,95577.50
2022-07-29T03:54:41.884Z,95585.34
2022-07-29T03:57:29.643Z,95588.91
2022-07-29T04:00:19.707Z,95588.91
2022-07-29T04:03:10.656Z,95596.38
2022-07-29T04:06:09.316Z,95597.53
2022-07-29T04:08:55.200Z,95600.72
2022-07-29T04:12:01.773Z,95599.16
2022-07-29T04:14:49.824Z,95596.78
2022-07-29T04:17:36.298Z,95596.78
2022-07-29T04:20:22.941Z,95596.44
2022-07-29T04:23:09.165Z,95604.72
2022-07-29T04:25:55.197Z,95594.44
2022-07-29T04:28:41.510Z,95600.78
2022-07-29T04:31:27.629Z,95593.69
2022-07-29T04:34:14.091Z,95607.88
2022-07-29T04:37:00.155Z,95605.50
2022-07-29T04:39:46.130Z,95601.19
2022-07-29T04:42:31.857Z,95608.63
2022-07-29T04:45:22.654Z,95609.38
2022-07-29T04:48:09.078Z,95605.06
2022-07-29T04:50:54.797Z,95606.22
2022-07-29T04:53:40.487Z,95605.41
2022-07-29T04:56:26.535Z,95613.22
2022-07-29T04:59:12.255Z,95605.72
2022-07-29T05:01:59.557Z,95599.03
2022-07-29T05:04:45.573Z,95598.22
2022-07-29T05:07:31.303Z,95602.97
2022-07-29T05:10:16.958Z,95590.38
2022-07-29T05:13:02.794Z,95611.22
2022-07-29T05:15:48.736Z,95599.81
2022-07-29T05:18:34.555Z,95609.66
2022-07-29T05:21:20.389Z,95604.50
2022-07-29T05:24:06.562Z,95611.22
2022-07-29T05:26:52.462Z,95611.66
2022-07-29T05:29:44.048Z,95612.44
2022-07-29T05:32:31.488Z,95607.00
2022-07-29T05:35:17.883Z,95604.69
2022-07-29T05:38:04.430Z,95612.56
2022-07-29T05:40:53.590Z,95599.19
2022-07-29T05:43:39.403Z,95607.09
2022-07-29T05:46:25.406Z,95611.84
2022-07-29T05:49:11.676Z,95617.41
2022-07-29T05:52:14.201Z,95615.03
2022-07-29T05:55:02.227Z,95618.56
2022-07-29T05:57:48.224Z,95620.56
2022-07-29T06:00:33.951Z,95626.88
2022-07-29T06:03:19.849Z,95630.03
2022-07-29T06:06:07.084Z,95616.66
2022-07-29T06:08:53.188Z,95619.06
2022-07-29T06:11:38.839Z,95612.72
2022-07-29T06:14:27.568Z,95620.66
2022-07-29T06:17:13.349Z,95624.56
2022-07-29T06:19:59.421Z,95624.56
2022-07-29T06:22:45.196Z,95620.25
2022-07-29T06:25:31.379Z,95617.47
2022-07-29T06:28:17.424Z,95616.69
2022-07-29T06:31:03.448Z,95618.28
2022-07-29T06:33:49.266Z,95608.84
2022-07-29T06:36:39.733Z,95610.00
2022-07-29T06:39:27.172Z,95605.66
2022-07-29T06:42:13.140Z,95605.75
2022-07-29T06:45:00.741Z,95615.22
2022-07-29T06:47:46.655Z,95609.69
2022-07-29T06:50:32.936Z,95618.41
2022-07-29T06:53:18.581Z,95613.69
2022-07-29T06:56:05.453Z,95623.22
2022-07-29T06:58:51.605Z,95629.56
2022-07-29T07:01:39.198Z,95621.72
2022-07-29T07:04:25.165Z,95620.16
2022-07-29T07:07:11.102Z,95613.09
2022-07-29T07:09:57.093Z,95620.22
2022-07-29T07:12:42.787Z,95618.66
2022-07-29T07:15:38.974Z,95613.97
2022-07-29T07:18:26.071Z,95599.38
2022-07-29T07:21:12.428Z,95606.09
2022-07-29T07:24:07.482Z,95610.88
2022-07-29T07:26:53.374Z,95613.25
2022-07-29T07:29:44.230Z,95609.72
2022-07-29T07:32:30.635Z,95614.06
2022-07-29T07:35:16.911Z,95605.41
2022-07-29T07:38:03.023Z,95613.31
2022-07-29T07:40:49.084Z,95613.72
2022-07-29T07:43:35.047Z,95613.38
2022-07-29T07:46:21.252Z,95606.69
2022-07-29T07:49:07.379Z,95609.47
2022-07-29T07:51:53.648Z,95604.75
2022-07-29T07:54:39.494Z,95600.00
2022-07-29T07:57:25.402Z,95599.63
2022-07-29T08:00:12.833Z,95603.97
2022-07-29T08:02:59.048Z,95607.91
2022-07-29T08:05:45.294Z,95611.88
2022-07-29T08:08:31.190Z,95618.97
2022-07-29T08:11:16.896Z,95612.69
2022-07-29T08:14:02.789Z,95610.31
2022-07-29T08:16:49.011Z,95601.25
2022-07-29T08:19:35.200Z,95596.13
2022-07-29T08:22:21.014Z,95601.25
2022-07-29T08:25:07.211Z,95596.13
2022-07-29T08:27:52.866Z,95599.28
2022-07-29T08:30:38.799Z,95600.91
2022-07-29T08:33:24.850Z,95592.59
2022-07-29T08:36:11.068Z,95589.84
2022-07-29T08:38:57.638Z,95580.75
2022-07-29T08:41:57.485Z,95581.94
2022-07-29T08:44:43.927Z,95589.03
2022-07-29T08:47:29.908Z,95581.16
2022-07-29T08:50:15.938Z,95589.81
2022-07-29T08:53:01.822Z,95576.38
2022-07-29T08:55:50.730Z,95582.72
2022-07-29T08:58:38.568Z,95575.59
2022-07-29T09:01:36.064Z,95575.59
2022-07-29T09:04:32.489Z,95565.72
2022-07-29T09:07:20.129Z,95560.94
2022-07-29T09:10:07.221Z,95553.44
2022-07-29T09:12:53.517Z,95557.41
2022-07-29T09:15:39.637Z,95548.28
2022-07-29T09:18:45.802Z,95551.84
2022-07-29T09:22:00.387Z,95558.53
2022-07-29T09:24:48.634Z,95544.72
2022-07-29T09:27:35.358Z,95550.25
2022-07-29T09:30:25.513Z,95547.84
2022-07-29T09:33:22.122Z,95547.03
2022-07-29T09:36:12.913Z,95539.91
2022-07-29T09:39:04.797Z,95529.59
2022-07-29T09:41:53.875Z,95534.31
2022-07-29T09:44:51.005Z,95536.66
2022-07-29T09:47:48.844Z,95537.44
2022-07-29T09:50:42.276Z,95530.28
2022-07-29T09:53:38.953Z,95532.63
2022-07-29T09:56:41.553Z,95527.84
2022-07-29T09:59:29.215Z,95522.31
2022-07-29T10:02:23.502Z,95525.03
2022-07-29T10:05:36.248Z,95513.50
2022-07-29T10:08:27.928Z,95501.63
2022-07-29T10:11:15.885Z,95497.25
2022-07-29T10:14:04.616Z,95498.38
2022-07-29T10:16:50.435Z,95493.59
2022-07-29T10:19:37.967Z,95501.06
2022-07-29T10:22:51.441Z,95495.09
2022-07-29T10:25:32.862Z,95487.50
2022-07-29T10:28:27.488Z,95491.03
2022-07-29T10:31:35.299Z,95484.25
2022-07-29T10:34:58.290Z,95481.44
2022-07-29T10:38:06.723Z,95472.66
2022-07-29T10:41:27.262Z,95472.56
2022-07-29T10:44:19.376Z,95481.97
2022-07-29T10:47:27.519Z,95466.09
2022-07-29T10:50:17.156Z,95464.84
2022-07-29T10:53:04.902Z,95468.75
2022-07-29T10:55:57.718Z,95471.50
2022-07-29T10:58:44.575Z,95468.34
2022-07-29T11:01:40.061Z,95462.78
2022-07-29T11:04:44.785Z,95464.69
2022-07-29T11:07:45.789Z,95465.03
2022-07-29T11:10:33.312Z,95450.75
2022-07-29T11:13:51.544Z,95459.00
2022-07-29T11:17:03.132Z,95447.41
2022-07-29T11:20:31.270Z,95452.91
2022-07-29T11:23:40.414Z,95447.25
2022-07-29T11:26:28.927Z,95440.75
2022-07-29T11:29:25.536Z,95435.13
2022-07-29T11:32:22.737Z,95437.00
2022-07-29T11:35:19.281Z,95436.47
2022-07-29T11:38:32.038Z,95430.84
2022-07-29T11:41:28.757Z,95426.75
2022-07-29T11:44:18.030Z,95429.00
2022-07-29T11:47:04.697Z,95435.22
2022-07-29T11:49:53.548Z,95424.00
2022-07-29T11:52:49.794Z,95431.00
2022-07-29T11:55:50.794Z,95423.88
2022-07-29T11:58:38.486Z,95416.75
2022-07-29T12:01:25.604Z,95417.59
2022-07-29T12:04:14.058Z,95417.66
2022-07-29T12:07:00.686Z,95416.50
2022-07-29T12:09:53.893Z,95416.13
2022-07-29T12:12:43.026Z,95410.59
2022-07-29T12:15:45.579Z,95413.38
2022-07-29T12:18:33.244Z,95410.59
2022-07-29T12:21:19.121Z,95416.88
2022-07-29T12:24:11.635Z,95412.03
2022-07-29T12:26:58.978Z,95405.63
2022-07-29T12:29:47.979Z,95409.56
2022-07-29T12:32:40.350Z,95407.94
2022-07-29T12:35:26.686Z,95400.03
2022-07-29T12:38:13.450Z,95402.38
2022-07-29T12:40:59.647Z,95395.97
2022-07-29T12:43:55.790Z,95399.47
2022-07-29T12:46:41.610Z,95391.88
2022-07-29T12:49:27.857Z,95390.25
2022-07-29T12:52:33.440Z,95398.09
2022-07-29T12:55:42.642Z,95390.84
2022-07-29T12:58:40.302Z,95385.22
2022-07-29T13:01:28.304Z,95387.50
2022-07-29T13:04:28.787Z,95384.22
2022-07-29T13:07:15.509Z,95367.06
2022-07-29T13:10:15.907Z,95377.66
2022-07-29T13:13:10.672Z,95373.56
2022-07-29T13:16:09.203Z,95375.03
2022-07-29T13:19:06.526Z,95367.78
2022-07-29T13:21:52.257Z,95367.22
2022-07-29T13:24:48.046Z,95366.28
2022-07-29T13:27:37.331Z,95353.69
2022-07-29T13:30:24.295Z,95363.69
2022-07-29T13:33:10.412Z,95358.25
2022-07-29T13:35:56.309Z,95353.47
2022-07-29T13:38:42.349Z,95354.16
2022-07-29T13:41:28.625Z,95351.31
2022-07-29T13:44:14.560Z,95347.72
2022-07-29T13:47:01.543Z,95351.47
2022-07-29T13:49:47.717Z,95344.22
2022-07-29T13:52:34.556Z,95339.75
2022-07-29T13:55:20.822Z,95342.44
2022-07-29T13:58:07.008Z,95350.72
2022-07-29T14:00:53.146Z,95349.38
2022-07-29T14:03:45.737Z,95343.84
2022-07-29T14:06:36.120Z,95347.84
2022-07-29T14:09:26.711Z,95342.59
2022-07-29T14:12:12.991Z,95349.63
2022-07-29T14:14:59.174Z,95331.47
2022-07-29T14:17:45.142Z,95342.81
2022-07-29T14:20:32.268Z,95338.16
2022-07-29T14:23:20.166Z,95339.16
2022-07-29T14:26:08.751Z,95330.16
2022-07-29T14:28:59.154Z,95331.31
2022-07-29T14:31:45.046Z,95325.34
2022-07-29T14:34:31.274Z,95329.44
2022-07-29T14:37:17.440Z,95328.16
2022-07-29T14:40:05.169Z,95331.25
2022-07-29T14:42:50.850Z,95325.88
2022-07-29T14:45:37.145Z,95318.00
2022-07-29T14:48:23.129Z,95316.84
2022-07-29T14:51:09.117Z,95309.56
2022-07-29T14:53:55.132Z,95313.47
2022-07-29T14:56:46.530Z,95314.94
2022-07-29T14:59:34.346Z,95305.38
2022-07-29T15:02:20.708Z,95319.31
2022-07-29T15:05:07.408Z,95311.94
2022-07-29T15:07:53.546Z,95296.47
2022-07-29T15:10:39.665Z,95297.44
2022-07-29T15:13:26.376Z,95302.00
2022-07-29T15:16:12.747Z,95293.22
2022-07-29T15:19:01.125Z,95288.03
2022-07-29T15:21:48.762Z,95286.25
2022-07-29T15:24:46.250Z,95291.97
2022-07-29T15:27:32.525Z,95288.84
2022-07-29T15:30:32.529Z,95286.81
2022-07-29T15:33:20.586Z,95283.19
2022-07-29T15:36:06.817Z,95281.53
2022-07-29T15:38:55.968Z,95287.94
2022-07-29T15:41:41.893Z,95280.34
2022-07-29T15:44:27.730Z,95278.56
2022-07-29T15:47:13.721Z,95273.66
2022-07-29T15:50:02.250Z,95272.09
2022-07-29T15:52:48.341Z,95265.91
2022-07-29T15:55:34.435Z,95276.88
2022-07-29T15:58:21.742Z,95271.19
2022-07-29T16:01:07.448Z,95270.72
2022-07-29T16:03:53.975Z,95267.81
2022-07-29T16:06:40.377Z,95261.44
2022-07-29T16:09:26.974Z,95270.00
2022-07-29T16:12:15.354Z,95263.94
2022-07-29T16:15:03.961Z,95263.47
2022-07-29T16:17:53.429Z,95265.31
2022-07-29T16:20:39.338Z,95261.16
2022-07-29T16:23:25.334Z,95266.59
2022-07-29T16:26:12.041Z,95266.03
2022-07-29T16:28:58.325Z,95267.44
2022-07-29T16:31:44.578Z,95271.13
2022-07-29T16:34:30.730Z,95270.91
2022-07-29T16:37:16.653Z,95273.03
2022-07-29T16:40:04.716Z,95267.44
2022-07-29T16:42:50.452Z,95273.03
2022-07-29T16:45:41.883Z,95264.66
2022-07-29T16:48:33.810Z,95279.38
2022-07-29T16:51:22.204Z,95274.59
2022-07-29T16:54:10.785Z,95264.75
2022-07-29T16:56:57.304Z,95264.41
2022-07-29T16:59:43.948Z,95265.38
2022-07-29T17:02:30.313Z,95265.56
2022-07-29T17:05:16.861Z,95266.44
2022-07-29T17:08:03.129Z,95262.44
2022-07-29T17:10:49.617Z,95260.59
2022-07-29T17:13:35.388Z,95257.03
2022-07-29T17:16:24.807Z,95271.41
2022-07-29T17:19:10.859Z,95252.69
2022-07-29T17:22:03.546Z,95274.13
2022-07-29T17:24:56.207Z,95253.13
2022-07-29T17:27:43.437Z,95281.56
2022-07-29T17:30:30.097Z,95276.31
2022-07-29T17:33:16.298Z,95275.63
2022-07-29T17:36:20.892Z,95269.88
2022-07-29T17:39:08.875Z,95277.53
2022-07-29T17:41:54.894Z,95278.47
2022-07-29T17:44:41.570Z,95290.38
2022-07-29T17:47:27.434Z,95286.53
2022-07-29T17:50:13.767Z,95292.09
2022-07-29T17:53:00.032Z,95289.81
2022-07-29T17:55:47.692Z,95289.88
2022-07-29T17:58:34.121Z,95292.03
2022-07-29T18:01:21.013Z,95301.16
2022-07-29T18:04:10.454Z,95295.38
2022-07-29T18:06:56.585Z,95301.81
2022-07-29T18:09:42.698Z,95300.69
2022-07-29T18:12:29.003Z,95300.81
2022-07-29T18:15:15.495Z,95299.75
2022-07-29T18:18:01.463Z,95307.75
2022-07-29T18:20:47.927Z,95315.34
2022-07-29T18:23:33.925Z,95309.94
2022-07-29T18:26:20.112Z,95308.50
2022-07-29T18:29:06.167Z,95318.09
2022-07-29T18:31:55.834Z,95326.06
2022-07-29T18:34:42.140Z,95330.13
2022-07-29T18:38:00.284Z,95336.16
2022-07-29T18:40:36.141Z,95334.31
2022-07-29T18:43:22.203Z,95332.09
2022-07-29T18:46:08.304Z,95348.03
2022-07-29T18:48:54.598Z,95349.72
2022-07-29T18:51:41.613Z,95344.28
2022-07-29T18:54:28.524Z,95345.13
2022-07-29T18:57:55.391Z,95351.53
2022-07-29T19:00:24.567Z,95350.03
2022-07-29T19:03:10.872Z,95354.88
2022-07-29T19:05:56.879Z,95366.03
2022-07-29T19:08:42.795Z,95356.63
2022-07-29T19:11:29.026Z,95356.66
2022-07-29T19:14:15.188Z,95369.38
2022-07-29T19:17:01.275Z,95371.00
2022-07-29T19:19:47.436Z,95386.53
2022-07-29T19:22:33.549Z,95378.28
2022-07-29T19:25:19.710Z,95383.03
2022-07-29T19:28:05.833Z,95382.31
2022-07-29T19:30:52.223Z,95391.84
2022-07-29T19:33:38.549Z,95402.16
2022-07-29T19:36:24.775Z,95402.94
2022-07-29T19:39:11.534Z,95399.81
2022-07-29T19:42:02.911Z,95402.19
2022-07-29T19:44:49.630Z,95405.47
2022-07-29T19:47:35.950Z,95408.56
2022-07-29T19:50:22.924Z,95408.22
2022-07-29T19:53:08.877Z,95403.56
2022-07-29T19:55:55.071Z,95409.13
2022-07-29T19:58:41.327Z,95401.63
2022-07-29T20:01:27.573Z,95404.84
2022-07-29T20:04:13.669Z,95404.97
2022-07-29T20:07:01.629Z,95408.94
2022-07-29T20:09:49.422Z,95408.19
2022-07-29T20:12:37.577Z,95408.28
2022-07-29T20:15:23.615Z,95410.66
2022-07-29T20:18:09.652Z,95423.38
2022-07-29T20:20:57.550Z,95415.50
2022-07-29T20:23:43.585Z,95403.72
2022-07-29T20:26:29.961Z,95421.19
2022-07-29T20:29:16.207Z,95418.03
2022-07-29T20:32:02.577Z,95422.00
2022-07-29T20:34:48.638Z,95426.78
2022-07-29T20:37:34.662Z,95422.88
2022-07-29T20:40:40.080Z,95426.06
2022-07-29T20:43:27.213Z,95430.00
2022-07-29T20:46:13.321Z,95422.56
2022-07-29T20:48:59.643Z,95422.97
2022-07-29T20:51:45.487Z,95423.75
2022-07-29T20:54:31.541Z,95414.34
2022-07-29T20:57:18.086Z,95423.47
2022-07-29T21:00:25.171Z,95420.31
2022-07-29T21:03:11.225Z,95416.84
2022-07-29T21:05:57.220Z,95426.75
2022-07-29T21:08:43.414Z,95420.81
2022-07-29T21:11:43.770Z,95429.13
2022-07-29T21:14:37.466Z,95427.63
2022-07-29T21:17:23.525Z,95438.31
2022-07-29T21:20:09.900Z,95436.75
2022-07-29T21:22:56.135Z,95430.50
2022-07-29T21:25:42.229Z,95434.47
2022-07-29T21:28:29.393Z,95432.16
2022-07-29T21:31:16.997Z,95438.09
2022-07-29T21:34:02.978Z,95435.31
2022-07-29T21:36:51.954Z,95433.72
2022-07-29T21:39:38.882Z,95432.97
2022-07-29T21:42:24.675Z,95432.97
2022-07-29T21:45:10.811Z,95430.63
2022-07-29T21:47:57.886Z,95437.75
2022-07-29T21:50:44.353Z,95433.41
2022-07-29T21:53:30.747Z,95432.22
2022-07-29T21:56:16.687Z,95436.19
2022-07-29T21:59:04.097Z,95441.75
2022-07-29T22:01:56.132Z,95445.34
2022-07-29T22:04:42.307Z,95442.97
2022-07-29T22:07:56.563Z,95433.91
2022-07-29T22:10:35.791Z,95435.50
2022-07-29T22:13:21.591Z,95435.50
2022-07-29T22:16:09.535Z,95438.63
2022-07-29T22:18:55.716Z,95427.63
2022-07-29T22:21:42.185Z,95430.78
2022-07-29T22:24:27.967Z,95433.16
2022-07-29T22:27:14.005Z,95452.91
2022-07-29T22:29:59.868Z,95439.50
2022-07-29T22:32:45.803Z,95443.44
2022-07-29T22:35:32.038Z,95434.00
2022-07-29T22:38:18.673Z,95431.28
2022-07-29T22:41:04.639Z,95449.09
2022-07-29T22:43:50.469Z,95438.81
2022-07-29T22:46:37.839Z,95435.69
2022-07-29T22:49:23.773Z,95433.31
2022-07-29T22:52:10.093Z,95429.38
2022-07-29T22:54:55.917Z,95435.69
2022-07-29T22:57:42.354Z,95437.66
2022-07-29T23:00:28.150Z,95427.03
2022-07-29T23:03:14.214Z,95430.19
2022-07-29T23:06:00.543Z,95427.03
2022-07-29T23:08:46.537Z,95424.28
2022-07-29T23:11:36.012Z,95425.09
2022-07-29T23:14:24.376Z,95425.50
2022-07-29T23:17:10.116Z,95417.59
2022-07-29T23:19:55.771Z,95418.41
2022-07-29T23:22:42.255Z,95412.13
2022-07-29T23:25:28.122Z,95418.41
2022-07-29T23:28:14.372Z,95424.72
2022-07-29T23:31:00.246Z,95432.63
2022-07-29T23:33:46.143Z,95423.94
2022-07-29T23:36:32.233Z,95420.78
2022-07-29T23:39:18.166Z,95425.56
2022-07-29T23:42:04.938Z,95417.25
2022-07-29T23:44:51.091Z,95412.13
2022-07-29T23:47:37.092Z,95419.25
2022-07-29T23:50:23.300Z,95414.91
2022-07-29T23:53:12.223Z,95408.22
2022-07-29T23:55:58.508Z,95412.16
2022-07-29T23:58:44.243Z,95412.97
